Tenderloin, NY

01:21 AM EST на 18 Ноември, 2017 (GMT -0500)
Bryant Park | | Change Station

Elev 0 ft 40.75 °N, 73.98 °W | Updated 15 seconds ago

Clear
Ведро
41.4 °F
Feels Like 41 °F
С
0.0
Ветер Променлив Ветер from ЈЈЗ
Gusts 0.0 mph

Денес
High -- | Low -- °F
--% Chance of Precip.
Вчера
High -- | Low -- °F
Precip. -- инчи
Притисок 30.04 инчи
Видливост 10.0 миљи
Облаци Ведро
Лични чувство за темп. со ветерот 41 °F
Точка на kондензација 15 °F
Влажност 34%
Дожд 0.00 инчи
Височина на снег Not available.
6:46 AM 4:35 PM
Последниот квартал, 0% visible
METAR KNYC 180551Z AUTO 28004KT 10SM CLR 03/M08 A3007 RMK AO2 SLP173 T00281083 10061 20028 58014 $
Притисок 30.04 инчи
Видливост 10.0 миљи
Облаци Ведро
Лични чувство за темп. со ветерот 41 °F
Точка на kондензација 15 °F
Влажност 34%
Дожд 0.00 инчи
Височина на снег Not available.
6:46 AM 4:35 PM
Последниот квартал, 0% visible
METAR KNYC 180551Z AUTO 28004KT 10SM CLR 03/M08 A3007 RMK AO2 SLP173 T00281083 10061 20028 58014 $

Get Severe Weather Alerts

Thanks for signing up!

Be on the lookout for a verification email in your inbox.

You'll start receiving the daily forecast at 6 AM.

×

10-Day Weather Forecast

Almanac

Астрономијата

Nov. 18, 2017 Изгревање Заоѓање
Актуелно време
Граѓанскиот самрак
Наутички самрак
Астрономски самрак
Месечината
Должина на видливата светлина
Должина на денот
Tomorrow will be .
, % of the Moon is Illuminated

Екстреми денес

State Highs State Lows

Community

WunderPhotos

Category 6

Welcome to Category 6. This is the collective home for Weather Underground's featured writeups by Dr. Jeff Masters (right), Bob Henson (left), Chris Burt, and other regular contributors.

Nearby

Квалитетот на воздухот

  Квалитетот на воздухот AQ индекс Загадувач
Not available.

Височина на снег

Station Depth Висина

Earthquake Activity

Град Distance Mag. Time & Date
Minimum magnitude displayed is 2.5.

Coastal Water Temperatures

Место Температура

Stations

Nearby Weather Stations

Локација на станицата Темп. Лични чувство за темп. со ветерот Точка на kондензација Влажност Ветер Precip. Elev Ажурирани Тип
                   

Watches & Warnings

There are currently no watches in effect.